首页
METAR-TAF:

METAR-TAF

机场 :

羅馬-菲烏米奇諾機場

罗马菲乌米奇诺, 意大利

纬度: 41-48N, 经度: 012-14E, 海拔: 2米

当前天气观测

该预报发布于10分钟前的19:20 UTC
风速6节,风向南转南东,在东南南转西南之间变化
温度 16°C
湿度 94%
气压 1016 hPa
能见度10公里或以上
1500米以下无云,无积雨云

METAR: LIRF 211920Z 16006KT 140V210 CAVOK 16/15 Q1016 NOSIG

时间: 21:30 (19:30 UTC)

预报

该预报发布于1小时和14分钟前的18:16 UTC
预报有效从21日的 18点(UTC)到 22日的 24点(UTC)
风速8节,风向南转南东
能见度10公里或以上
散云层高于3000英尺
成为
从 22日的 09点(UTC)到 22日的 11点(UTC)
风速12节,风向西南
成为
从 22日的 17点(UTC)到 22日的 19点(UTC)
风速7节,风向南转南东

TAF: LIRF 211816Z 2118/2224 15008KT 9999 SCT030 BECMG 2209/2211 23012KT BECMG 2217/2219 15007KT

超过4000个机场的气象观测和天气预报(METAR&TAF报告)。

可查询的气象台以黄色和红色小点在地图上表示。

将鼠标移到小点上方,可查看气象台名称。

然后点击查看天气观测和预报。

如需切换地图:点击带黑十字的绿色按钮放大地图;点击带横线的绿色按钮缩小地图;或者点击绿色箭头查看邻近地区的地图。


METAR-TAF: